Time;durP1;ratioP1;P1;durP2;ratioP2;P2;SDS_P1;SDS_P2;PMS_P1;PMS_P2;Temp;Humidity;BMP_temperature;BMP_pressure;BME280_temperature;BME280_humidity;BME280_pressure;Samples;Min_cycle;Max_cycle;Signal;HPM_P1;HPM_P2
2023/08/22 04:11:49;;;;;;;16.90;14.60;;;;;;;23.29;92.08;100830.37;5618788;31;76683;-56
2023/08/22 04:14:51;;;;;;;19.02;14.57;;;;;;;23.29;92.08;100830.37;5603133;31;33093;-56
2023/08/22 04:17:54;;;;;;;16.15;14.35;;;;;;;22.82;93.57;100834.69;5603587;31;33635;-56
2023/08/22 04:20:57;;;;;;;17.87;14.05;;;;;;;22.83;93.92;100830.81;5603677;31;33621;-56
2023/08/22 04:23:59;;;;;;;15.07;13.52;;;;;;;22.90;95.13;100824.72;5603427;31;33567;-57
2023/08/22 04:27:01;;;;;;;15.35;13.93;;;;;;;22.97;92.49;100831.19;5603725;31;33150;-57
2023/08/22 04:30:05;;;;;;;15.27;13.73;;;;;;;22.91;94.30;100838.06;5603320;31;33599;-57
2023/08/22 04:33:08;;;;;;;14.98;13.40;;;;;;;22.90;100.00;100836.44;5603607;31;34160;-57
2023/08/22 04:36:11;;;;;;;15.52;13.23;;;;;;;22.94;97.42;100847.50;5603521;31;33242;-56
2023/08/22 04:39:14;;;;;;;15.50;13.73;;;;;;;22.98;95.13;100842.94;5603564;31;33370;-57
2023/08/22 04:42:17;;;;;;;15.77;13.80;;;;;;;23.02;97.29;100840.28;5603290;31;31547;-57
2023/08/22 04:45:20;;;;;;;14.30;12.93;;;;;;;23.01;93.62;100841.41;5603435;31;34385;-57
2023/08/22 04:48:23;;;;;;;15.20;13.70;;;;;;;;;;5603246;31;34352;-57
2023/08/22 04:51:25;;;;;;;16.98;13.85;;;;;;;23.22;93.04;100836.47;5603532;31;34652;-57
2023/08/22 04:54:28;;;;;;;17.37;14.05;;;;;;;23.35;89.41;100837.16;5603184;31;33350;-57
2023/08/22 04:57:31;;;;;;;14.15;12.85;;;;;;;23.34;90.71;100843.75;5603475;31;34486;-56
2023/08/22 05:00:33;;;;;;;15.25;13.55;;;;;;;23.32;98.65;100840.59;5602143;31;33492;-57
2023/08/22 05:03:36;;;;;;;14.57;13.18;;;;;;;23.34;94.96;100850.03;5602774;31;33619;-56
2023/08/22 05:06:38;;;;;;;17.20;13.93;;;;;;;23.33;98.45;100866.81;5602622;31;33587;-56
2023/08/22 05:09:40;;;;;;;14.55;13.10;;;;;;;23.35;94.75;100864.53;5603032;31;32696;-57
2023/08/22 05:12:43;;;;;;;15.60;14.00;;;;;;;23.37;97.03;100863.00;5602442;31;33609;-57
2023/08/22 05:15:45;;;;;;;15.00;13.35;;;;;;;23.43;92.40;100866.25;5600174;31;33656;-57
2023/08/22 05:18:47;;;;;;;18.40;13.50;;;;;;;23.49;97.04;100864.84;5583179;31;34402;-56
2023/08/22 05:21:50;;;;;;;17.20;14.38;;;;;;;23.49;99.20;100862.09;5575432;32;33550;-57
2023/08/22 05:24:52;;;;;;;18.67;13.52;;;;;;;23.58;95.32;100865.44;5569683;32;34455;-57
2023/08/22 05:27:55;;;;;;;15.20;13.27;;;;;;;23.71;92.97;100873.56;5569858;32;33770;-58
2023/08/22 05:30:57;;;;;;;17.25;14.23;;;;;;;23.89;92.20;100881.00;5569557;32;34403;-56
2023/08/22 05:34:00;;;;;;;22.55;13.62;;;;;;;23.99;93.97;100878.88;5569984;31;33251;-56
2023/08/22 05:37:02;;;;;;;15.45;13.82;;;;;;;24.07;95.74;100877.84;5570030;31;33313;-57
2023/08/22 05:40:08;;;;;;;17.37;14.35;;;;;;;24.22;93.30;100871.53;5569531;32;34396;-57
2023/08/22 05:43:10;;;;;;;19.20;14.52;;;;;;;24.36;90.50;100865.53;5569336;31;34527;-57
2023/08/22 05:46:13;;;;;;;16.42;14.48;;;;;;;24.47;88.51;100876.72;5568948;32;33589;-57
2023/08/22 05:49:16;;;;;;;20.58;14.20;;;;;;;24.56;89.22;100880.03;5567884;31;33352;-58
2023/08/22 05:52:19;;;;;;;30.00;15.73;;;;;;;24.68;87.80;100877.13;5568953;31;33450;-57
2023/08/22 05:55:21;;;;;;;16.40;14.63;;;;;;;24.78;88.80;100875.75;5569424;32;33432;-56
2023/08/22 05:58:24;;;;;;;16.05;14.05;;;;;;;24.89;87.34;100884.16;5569118;31;33246;-57
2023/08/22 06:01:27;;;;;;;19.17;15.07;;;;;;;24.98;87.53;100879.22;5569563;31;33494;-57
2023/08/22 06:04:31;;;;;;;21.67;14.32;;;;;;;25.06;86.12;100878.97;5569346;31;31749;-57
2023/08/22 06:07:34;;;;;;;25.40;14.57;;;;;;;25.18;86.30;100883.50;5569651;31;33430;-56
2023/08/22 06:10:36;;;;;;;16.35;13.98;;;;;;;25.28;85.13;100880.13;5569498;32;33551;-57
2023/08/22 06:13:38;;;;;;;21.08;14.48;;;;;;;25.38;86.27;100886.94;5569964;32;34333;-57
2023/08/22 06:16:44;;;;;;;18.90;13.32;;;;;;;25.49;83.50;100884.37;5569718;31;33257;-57
2023/08/22 06:19:48;;;;;;;15.95;13.35;;;;;;;25.57;83.14;100882.53;5569308;32;33802;-57
2023/08/22 06:22:51;;;;;;;16.27;14.35;;;;;;;25.66;78.49;100886.59;5569246;31;32138;-56
2023/08/22 06:25:53;;;;;;;22.65;13.85;;;;;;;25.73;78.83;100874.94;5569656;32;34366;-58
2023/08/22 06:28:55;;;;;;;15.13;12.77;;;;;;;25.82;78.94;100875.44;5569628;32;33914;-56
2023/08/22 06:32:00;;;;;;;21.80;13.30;;;;;;;25.89;80.51;100878.28;5568967;31;33514;-57
2023/08/22 06:35:03;;;;;;;16.35;12.85;;;;;;;25.96;78.75;100878.41;5568719;31;33154;-57
2023/08/22 06:38:06;;;;;;;21.02;13.77;;;;;;;25.98;77.74;100876.06;5569452;32;33839;-57
2023/08/22 06:41:08;;;;;;;20.67;13.85;;;;;;;26.04;78.01;100884.00;5569339;32;34321;-57
2023/08/22 06:44:11;;;;;;;16.30;13.93;;;;;;;26.09;76.05;100884.44;5569415;32;33689;-57
2023/08/22 06:47:14;;;;;;;20.42;14.07;;;;;;;26.15;74.45;100880.19;5569367;32;33713;-57
2023/08/22 06:50:16;;;;;;;16.87;13.90;;;;;;;26.22;74.51;100880.31;5568099;32;33628;-57
2023/08/22 06:53:19;;;;;;;17.73;13.60;;;;;;;26.25;73.33;100881.50;5569173;32;34266;-57
2023/08/22 06:56:23;;;;;;;15.05;13.48;;;;;;;26.32;73.19;100878.03;5569626;32;33671;-57
2023/08/22 06:59:28;;;;;;;20.05;13.65;;;;;;;26.38;73.30;100877.31;5569043;32;33613;-57
2023/08/22 07:02:31;;;;;;;19.55;12.32;;;;;;;26.43;73.10;100871.50;5568874;32;34156;-56
2023/08/22 07:05:35;;;;;;;16.55;11.52;;;;;;;26.52;69.49;100875.91;5569232;32;33651;-56
2023/08/22 07:08:37;;;;;;;18.10;11.43;;;;;;;26.54;68.98;100879.88;5568967;32;33428;-57
2023/08/22 07:11:42;;;;;;;15.60;12.20;;;;;;;26.58;69.95;100880.69;5568382;32;34303;-57
2023/08/22 07:14:47;;;;;;;13.77;11.45;;;;;;;26.61;69.94;100890.16;5558824;32;34329;-57
2023/08/22 07:17:49;;;;;;;13.30;11.80;;;;;;;26.69;69.10;100878.09;5567196;32;33597;-58
2023/08/22 07:20:53;;;;;;;14.23;12.43;;;;;;;26.74;69.98;100885.19;5568692;32;33964;-57
2023/08/22 07:23:57;;;;;;;18.17;13.07;;;;;;;26.82;69.84;100878.56;5557009;32;34337;-56
2023/08/22 07:27:00;;;;;;;17.45;12.45;;;;;;;26.84;67.41;100877.03;5549127;32;33623;-57
2023/08/22 07:30:04;;;;;;;17.05;11.95;;;;;;;26.86;68.72;100885.72;5549110;32;34397;-57
2023/08/22 07:33:06;;;;;;;13.57;11.30;;;;;;;26.91;69.29;100879.06;5549393;32;33710;-57
2023/08/22 07:36:20;;;;;;;17.20;11.40;;;;;;;27.01;68.28;100883.06;5549501;32;34392;-56
2023/08/22 07:39:22;;;;;;;16.62;11.45;;;;;;;27.01;68.35;100881.09;5549476;32;33327;-57
2023/08/22 07:42:24;;;;;;;14.32;11.20;;;;;;;27.08;66.92;100880.38;5562077;32;34344;-56
2023/08/22 07:45:27;;;;;;;17.58;10.93;;;;;;;27.12;65.16;100882.00;5564156;32;33614;-57
2023/08/22 07:48:32;;;;;;;14.27;11.27;;;;;;;27.12;63.25;100883.97;5568519;32;34340;-57
2023/08/22 07:51:36;;;;;;;18.37;12.55;;;;;;;27.12;65.49;100879.25;5568615;32;33673;-57
2023/08/22 07:54:39;;;;;;;19.73;12.68;;;;;;;27.21;66.24;100869.91;5568361;32;33691;-57
2023/08/22 07:57:41;;;;;;;15.10;12.23;;;;;;;27.20;66.89;100865.56;5568454;32;33669;-57
2023/08/22 08:00:47;;;;;;;14.65;11.75;;;;;;;27.21;66.91;100865.19;5568075;32;34263;-57
2023/08/22 08:03:50;;;;;;;13.48;12.10;;;;;;;27.28;66.65;100872.69;5567176;32;34015;-57
2023/08/22 08:06:54;;;;;;;16.02;12.40;;;;;;;27.33;66.72;100869.59;5564569;32;34131;-57
2023/08/22 08:09:57;;;;;;;17.83;12.80;;;;;;;27.31;66.22;100872.72;5560446;31;34096;-57
2023/08/22 08:12:59;;;;;;;16.30;13.45;;;;;;;27.36;66.74;100860.59;5557320;32;34389;-57
2023/08/22 08:16:01;;;;;;;18.05;12.77;;;;;;;27.47;68.62;100866.94;5552579;32;33762;-57
2023/08/22 08:19:09;;;;;;;15.40;13.10;;;;;;;27.41;67.07;100862.97;5568164;32;33600;-57
2023/08/22 08:22:11;;;;;;;15.40;13.00;;;;;;;27.43;68.09;100871.63;5567770;32;33701;-56
2023/08/22 08:25:14;;;;;;;14.57;12.25;;;;;;;27.44;68.03;100870.47;5567203;32;33581;-57
2023/08/22 08:28:16;;;;;;;14.63;12.65;;;;;;;27.47;66.15;100868.91;5549476;32;34339;-57
2023/08/22 08:31:18;;;;;;;16.70;13.98;;;;;;;27.58;66.04;100869.75;5556009;32;33913;-57
2023/08/22 08:34:21;;;;;;;15.52;12.35;;;;;;;27.63;67.49;100874.91;5566016;32;33660;-57
2023/08/22 08:37:23;;;;;;;18.20;12.88;;;;;;;27.63;67.03;100872.94;5547943;32;33826;-57
2023/08/22 08:40:33;;;;;;;14.85;12.32;;;;;;;27.63;64.24;100872.16;5548301;32;33637;-57
2023/08/22 08:43:36;;;;;;;14.70;12.55;;;;;;;27.70;65.51;100872.19;5548103;32;33627;-57
2023/08/22 08:46:39;;;;;;;14.77;12.10;;;;;;;27.92;64.78;100866.84;5548086;32;33562;-57
2023/08/22 08:49:41;;;;;;;18.65;13.65;;;;;;;28.02;64.74;100861.38;5547924;32;33657;-57
2023/08/22 08:52:45;;;;;;;15.00;12.52;;;;;;;27.96;65.00;100856.59;5547570;32;33368;-57
2023/08/22 08:55:48;;;;;;;15.57;12.98;;;;;;;28.19;64.40;100859.84;5548150;32;33697;-57
2023/08/22 08:58:50;;;;;;;16.80;12.52;;;;;;;28.19;65.22;100859.06;5550899;32;33718;-58
2023/08/22 09:01:53;;;;;;;15.93;13.35;;;;;;;28.32;63.66;100849.25;5550664;32;34351;-58
2023/08/22 09:04:56;;;;;;;16.67;12.98;;;;;;;28.25;63.39;100850.03;5550499;32;33671;-57
2023/08/22 09:08:14;;;;;;;14.02;12.73;;;;;;;28.14;63.97;100853.91;5550653;32;34372;-57
2023/08/22 09:11:26;;;;;;;14.35;12.85;;;;;;;28.18;63.93;100847.25;5550081;32;33655;-57
2023/08/22 09:14:28;;;;;;;14.75;12.48;;;;;;;28.24;63.59;100847.63;5550331;32;34402;-57
2023/08/22 09:17:30;;;;;;;15.02;12.50;;;;;;;28.21;63.28;100838.19;5550283;32;33725;-57
2023/08/22 09:20:33;;;;;;;14.68;12.98;;;;;;;28.26;64.45;100834.25;5550269;32;33663;-57
2023/08/22 09:23:35;;;;;;;17.45;12.85;;;;;;;28.34;64.79;100838.59;5550369;32;33748;-57
2023/08/22 09:26:37;;;;;;;15.88;12.85;;;;;;;28.42;63.09;100829.22;5550155;32;34627;-57
2023/08/22 09:29:41;;;;;;;18.98;13.48;;;;;;;28.62;61.78;100828.84;5549518;32;33737;-58
2023/08/22 09:32:56;;;;;;;14.55;12.98;;;;;;;28.56;62.02;100826.47;5550035;32;33657;-57
2023/08/22 09:35:59;;;;;;;14.40;12.40;;;;;;;28.64;61.67;100823.72;5552032;32;33557;-57
2023/08/22 09:39:01;;;;;;;14.05;12.68;;;;;;;28.62;63.32;100829.63;5550004;32;33453;-57
2023/08/22 09:42:07;;;;;;;14.13;11.80;;;;;;;28.60;63.47;100828.44;5550281;32;33441;-57
2023/08/22 09:45:10;;;;;;;13.38;12.05;;;;;;;28.71;60.73;100820.94;5555325;32;33636;-57
2023/08/22 09:48:23;;;;;;;14.32;12.02;;;;;;;28.76;60.31;100806.78;5555264;32;34396;-56
2023/08/22 09:51:25;;;;;;;14.30;11.52;;;;;;;28.85;59.07;100806.41;5551956;32;33653;-57
2023/08/22 09:54:28;;;;;;;13.85;12.45;;;;;;;28.91;61.62;100813.09;5549641;32;34282;-57
2023/08/22 09:57:31;;;;;;;14.30;12.40;;;;;;;28.93;60.41;100808.75;5550261;32;34428;-57
2023/08/22 10:00:35;;;;;;;14.02;11.93;;;;;;;29.07;59.89;100801.66;5548886;32;34349;-57
2023/08/22 10:03:38;;;;;;;16.10;12.32;;;;;;;29.01;58.21;100793.78;5550108;32;33737;-57
2023/08/22 10:06:41;;;;;;;14.60;12.43;;;;;;;29.03;59.86;100802.44;5549772;32;33655;-57
2023/08/22 10:09:50;;;;;;;12.70;11.40;;;;;;;29.11;60.32;100802.47;5554705;32;33632;-57
2023/08/22 10:12:54;;;;;;;15.82;11.85;;;;;;;29.19;60.00;100793.75;5555997;32;33768;-57
2023/08/22 10:15:57;;;;;;;13.20;11.45;;;;;;;29.16;59.93;100800.06;5553791;32;34424;-57
2023/08/22 10:19:02;;;;;;;13.43;12.23;;;;;;;29.21;61.47;100791.41;5554136;32;33702;-57
2023/08/22 10:22:15;;;;;;;13.77;12.23;;;;;;;29.21;60.97;100791.41;5561089;32;34346;-57
2023/08/22 10:25:17;;;;;;;13.18;11.95;;;;;;;29.24;60.18;100782.31;5556045;32;33732;-57
2023/08/22 10:28:19;;;;;;;13.77;12.43;;;;;;;29.25;60.38;100792.16;5549433;32;34434;-57
2023/08/22 10:31:21;;;;;;;17.08;12.25;;;;;;;29.29;60.52;100785.84;5548881;32;34311;-57
2023/08/22 10:34:24;;;;;;;16.45;12.27;;;;;;;29.31;58.29;100778.75;5548704;32;33686;-57
2023/08/22 10:37:27;;;;;;;13.15;11.55;;;;;;;29.36;58.38;100781.09;5551812;32;33780;-57
2023/08/22 10:40:32;;;;;;;13.20;11.85;;;;;;;29.38;58.33;100786.22;5569298;32;33897;-57
2023/08/22 10:43:38;;;;;;;12.87;11.60;;;;;;;29.56;58.23;100781.41;5567072;32;33633;-57
2023/08/22 10:47:00;;;;;;;13.20;11.82;;;;;;;29.48;58.90;100783.44;5556281;32;33762;-57
2023/08/22 10:50:12;;;;;;;13.10;11.43;;;;;;;29.54;57.23;100775.53;5549567;32;34343;-57
2023/08/22 10:53:24;;;;;;;12.73;11.27;;;;;;;29.47;57.07;100770.81;5550316;32;33184;-57
2023/08/22 10:56:27;;;;;;;11.90;10.68;;;;;;;29.57;57.48;100769.19;5568060;32;33473;-57
2023/08/22 10:59:30;;;;;;;11.43;10.30;;;;;;;29.75;55.54;100760.06;5569190;32;33597;-57
2023/08/22 11:02:33;;;;;;;11.63;10.43;;;;;;;29.72;55.84;100769.94;5565102;31;34345;-57
2023/08/22 11:05:36;;;;;;;12.07;10.80;;;;;;;29.66;53.98;100763.25;5558042;31;34367;-57
2023/08/22 11:08:40;;;;;;;12.68;10.90;;;;;;;29.70;54.15;100755.72;5550545;32;34501;-57
2023/08/22 11:11:42;;;;;;;12.33;10.30;;;;;;;29.81;52.87;100767.53;5561374;32;34557;-57
2023/08/22 11:14:46;;;;;;;12.13;9.55;;;;;;;29.91;51.65;100765.91;5558801;31;34504;-58
2023/08/22 11:17:50;;;;;;;11.20;10.20;;;;;;;29.82;52.63;100765.56;5561875;32;33276;-57
2023/08/22 11:20:57;;;;;;;11.55;10.40;;;;;;;30.01;51.87;100759.53;5560594;31;33997;-57
2023/08/22 11:23:59;;;;;;;13.43;11.02;;;;;;;29.91;51.11;100763.16;5580813;31;34395;-57
2023/08/22 11:27:05;;;;;;;12.32;9.95;;;;;;;29.92;51.45;100759.19;5577568;31;33682;-57
2023/08/22 11:30:09;;;;;;;12.88;11.57;;;;;;;30.00;50.07;100755.19;5568847;32;33931;-57
2023/08/22 11:33:19;;;;;;;23.10;12.93;;;;;;;29.99;52.80;100741.78;5568782;32;33472;-57
2023/08/22 11:36:22;;;;;;;12.82;11.48;;;;;;;29.98;53.91;100749.28;5565179;31;33631;-58
2023/08/22 11:39:30;;;;;;;14.77;12.50;;;;;;;29.99;53.52;100747.31;5561462;31;34233;-57
2023/08/22 11:42:33;;;;;;;13.13;11.77;;;;;;;30.08;52.72;100734.59;5558627;32;33709;-57
2023/08/22 11:45:53;;;;;;;13.90;12.55;;;;;;;30.24;51.65;100736.13;5573730;31;33620;-57
2023/08/22 11:48:56;;;;;;;14.45;13.05;;;;;;;30.10;54.45;100737.75;5583852;31;34250;-57
2023/08/22 11:51:58;;;;;;;14.87;12.93;;;;;;;30.08;54.83;100736.59;5567453;32;34317;-58
2023/08/22 11:55:06;;;;;;;24.92;13.98;;;;;;;30.10;54.05;100731.41;5548807;32;33744;-58
2023/08/22 11:58:16;;;;;;;20.48;13.38;;;;;;;30.13;54.50;100736.94;5562282;31;33729;-57
2023/08/22 12:01:21;;;;;;;15.75;13.02;;;;;;;30.10;55.08;100734.19;5574843;31;33581;-57
2023/08/22 12:04:23;;;;;;;19.67;13.00;;;;;;;30.14;55.78;100734.97;5556011;32;34378;-57
2023/08/22 12:07:26;;;;;;;13.27;11.88;;;;;;;30.14;55.27;100732.97;5558170;32;33683;-57
2023/08/22 12:10:39;;;;;;;16.85;13.20;;;;;;;30.21;55.23;100720.34;5557153;32;33734;-57
2023/08/22 12:13:41;;;;;;;21.17;12.00;;;;;;;30.32;54.37;100716.28;5557815;32;33803;-57
2023/08/22 12:16:44;;;;;;;12.57;11.27;;;;;;;30.29;53.45;100719.06;5548515;32;33732;-57
2023/08/22 12:19:47;;;;;;;16.65;12.00;;;;;;;30.25;52.50;100713.56;5559460;32;33658;-57
2023/08/22 12:22:49;;;;;;;13.45;11.65;;;;;;;30.38;52.10;100698.06;5566539;31;33730;-58
2023/08/22 12:25:51;;;;;;;13.90;11.25;;;;;;;30.32;54.45;100710.75;5585357;31;33319;-57
2023/08/22 12:28:54;;;;;;;12.75;11.50;;;;;;;30.27;52.93;100697.38;5563633;32;33148;-57
2023/08/22 12:31:56;;;;;;;12.90;11.50;;;;;;;30.33;52.20;100704.03;5551403;31;33753;-58
2023/08/22 12:34:58;;;;;;;13.43;12.13;;;;;;;30.34;52.19;100702.84;5589843;31;34322;-57
2023/08/22 12:38:02;;;;;;;13.20;11.85;;;;;;;30.38;52.88;100692.53;5575714;31;33781;-57
2023/08/22 12:41:07;;;;;;;16.12;11.80;;;;;;;30.37;53.24;100696.50;5570342;32;33674;-57
2023/08/22 12:44:09;;;;;;;13.13;11.88;;;;;;;30.44;53.41;100690.12;5570215;32;33814;-57
2023/08/22 12:47:11;;;;;;;14.05;12.37;;;;;;;30.49;52.50;100691.66;5570282;32;34329;-58
2023/08/22 12:50:14;;;;;;;19.73;12.40;;;;;;;30.37;52.57;100690.97;5584627;31;33659;-57
2023/08/22 12:53:17;;;;;;;13.60;12.25;;;;;;;30.32;52.28;100685.88;5589814;31;33774;-57
2023/08/22 12:56:19;;;;;;;16.48;11.65;;;;;;;30.54;51.36;100680.94;5589685;31;33350;-57
2023/08/22 12:59:25;;;;;;;14.38;11.85;;;;;;;30.58;51.63;100675.38;5589870;31;34356;-58
2023/08/22 13:02:27;;;;;;;14.23;12.20;;;;;;;30.60;51.74;100675.75;5589603;31;33596;-57
2023/08/22 13:05:30;;;;;;;14.13;11.50;;;;;;;30.49;52.10;100667.53;5590039;31;33547;-57
2023/08/22 13:08:33;;;;;;;13.38;12.07;;;;;;;30.66;52.20;100671.31;5589869;31;33670;-57
2023/08/22 13:11:50;;;;;;;16.73;12.15;;;;;;;30.59;52.83;100671.37;5578889;31;34292;-57
2023/08/22 13:14:53;;;;;;;12.48;11.18;;;;;;;30.54;53.21;100663.56;5553894;32;33932;-57
2023/08/22 13:17:55;;;;;;;12.77;11.48;;;;;;;30.58;50.34;100659.53;5561635;31;33734;-58
2023/08/22 13:20:57;;;;;;;12.55;11.32;;;;;;;30.63;52.57;100656.34;5588661;31;33764;-57
2023/08/22 13:24:04;;;;;;;13.43;12.13;;;;;;;30.64;52.06;100657.91;5559428;31;33635;-57
2023/08/22 13:27:06;;;;;;;12.95;11.70;;;;;;;30.67;50.44;100659.06;5568338;32;34423;-58
2023/08/22 13:30:09;;;;;;;13.07;11.77;;;;;;;30.66;50.10;100650.00;5554610;32;33621;-57
2023/08/22 13:33:11;;;;;;;12.43;11.18;;;;;;;30.76;49.69;100645.56;5565398;32;34421;-57
2023/08/22 13:36:13;;;;;;;12.65;11.35;;;;;;;30.72;50.26;100644.78;5574821;31;34297;-57
2023/08/22 13:39:16;;;;;;;13.65;12.25;;;;;;;30.65;51.64;100642.09;5584541;31;33711;-57
2023/08/22 13:42:19;;;;;;;21.02;11.90;;;;;;;30.64;50.91;100646.06;5581402;31;33556;-57
2023/08/22 13:45:22;;;;;;;11.82;10.73;;;;;;;30.60;52.94;100635.03;5566914;32;33620;-57
2023/08/22 13:48:24;;;;;;;13.15;10.65;;;;;;;30.58;50.31;100631.88;5549972;32;33646;-57
2023/08/22 13:51:27;;;;;;;12.40;11.10;;;;;;;30.55;51.25;100637.44;5571638;31;34246;-57
2023/08/22 13:54:29;;;;;;;14.23;10.60;;;;;;;30.54;51.77;100630.34;5555303;32;33690;-57
2023/08/22 13:57:31;;;;;;;16.65;10.90;;;;;;;30.56;52.31;100630.72;5584849;31;33737;-57
2023/08/22 14:00:34;;;;;;;14.32;10.15;;;;;;;30.55;51.98;100624.41;5578711;31;33706;-57
2023/08/22 14:03:36;;;;;;;15.60;9.70;;;;;;;30.59;51.02;100621.59;5568900;32;33860;-57
2023/08/22 14:06:39;;;;;;;15.00;9.75;;;;;;;30.62;48.20;100618.00;5560710;32;33647;-58
2023/08/22 14:09:41;;;;;;;10.77;9.75;;;;;;;30.58;48.07;100626.34;5578116;31;33559;-57
2023/08/22 14:12:44;;;;;;;10.38;9.32;;;;;;;30.61;46.98;100620.00;5563940;31;34296;-57
2023/08/22 14:15:49;;;;;;;11.70;10.52;;;;;;;30.64;48.17;100613.63;5562213;32;33688;-57
2023/08/22 14:18:51;;;;;;;12.60;10.60;;;;;;;30.68;49.14;100616.37;5559568;32;34285;-57
2023/08/22 14:21:54;;;;;;;13.18;10.70;;;;;;;30.74;47.93;100616.69;5582551;31;33641;-58
2023/08/22 14:24:57;;;;;;;10.95;9.93;;;;;;;30.94;47.95;100606.59;5575449;31;34394;-58
2023/08/22 14:27:59;;;;;;;13.50;9.88;;;;;;;30.91;49.31;100601.12;5566018;32;33610;-57
2023/08/22 14:31:03;;;;;;;11.93;9.90;;;;;;;30.84;48.72;100599.22;5561785;32;33615;-57
2023/08/22 14:34:07;;;;;;;13.63;10.17;;;;;;;30.81;48.28;100597.28;5578566;31;33926;-57
2023/08/22 14:37:09;;;;;;;15.13;9.98;;;;;;;30.88;48.17;100597.97;5575202;31;33738;-57
2023/08/22 14:40:24;;;;;;;10.18;9.18;;;;;;;30.89;49.89;100596.78;5568238;32;34400;-57
2023/08/22 14:43:28;;;;;;;11.40;9.25;;;;;;;30.76;49.01;100587.47;5568962;32;33676;-57
2023/08/22 14:46:31;;;;;;;33.65;10.70;;;;;;;30.73;47.69;100599.31;5569218;32;33578;-57
2023/08/22 14:49:33;;;;;;;76.97;14.23;;;;;;;30.73;48.97;100596.56;5564242;32;33636;-57
2023/08/22 14:52:35;;;;;;;57.53;11.82;;;;;;;30.73;49.09;100587.44;5549973;32;33641;-57
